NCAR-RAP Real-Time Weather Data

Output produced by METARs form (12 August 2020  18:37 UTC)
found at http://weather.rap.ucar.edu/surface/
 
KDEQ 121753Z AUTO 21004KT 10SM FEW006 OVC060 23/22 A3001 RMK AO1 LTG DSNT SE RAE26 SLP156 P0001 60260 T02330217 10233 20217 58010
KDEQ 121653Z AUTO 30003KT 10SM -RA FEW006 OVC070 23/22 A3005 RMK AO1 LTG DSNT NE AND SE SLP169 P0004 T02280217
KDEQ 121646Z AUTO 00000KT 10SM RA OVC070 22/21 A3004 RMK AO1 LTG DSNT ALQDS P0004 T02220211
KDEQ 121631Z AUTO 00000KT 10SM VCTS -RA FEW047 OVC070 22/21 A3004 RMK AO1 LTG DSNT ALQDS P0004 T02220211
KDEQ 121618Z AUTO VRB04KT 10SM -RA FEW045 FEW055 OVC070 22/21 A3005 RMK AO1 LTG DSNT ALQDS P0003 T02220211
KDEQ 121553Z AUTO 10006KT 10SM VCTS RA FEW006 BKN038 OVC060 22/21 A3003 RMK AO1 LTG DSNT ALQDS SLP166 P0080 T02220211
KDEQ 121539Z AUTO 21007KT 5SM VCTS +RA BR FEW004 OVC036 22/22 A3005 RMK AO1 LTG DSNT ALQDS P0074 T02220217
KDEQ 121530Z AUTO 17005KT 4SM VCTS +RA BR FEW004 OVC025 22/21 A3004 RMK AO1 LTG DSNT ALQDS P0065 T02220211
KDEQ 121513Z AUTO 18003KT 2SM VCTS +RA BR FEW007 SCT011 OVC017 23/22 A3005 RMK AO1 VIS 1V3 LTG DSNT ALQDS P0050 T02280217
KDEQ 121509Z AUTO 00000KT 1 1/4SM VCTS +RA BR SCT007 OVC013 22/22 A3005 RMK AO1 LTG DSNT ALQDS P0043 T02220217
KDEQ 121504Z AUTO VRB03KT 1 1/2SM +RA BR BKN009 OVC021 22/21 A3004 RMK AO1 LTG DSNT ALQDS P0036 T02220211
KDEQ 121502Z AUTO 05005KT 2SM VCTS +RA BR SCT007 BKN012 OVC021 22/21 A3004 RMK AO1 LTG DSNT ALQDS P0027 T02220211
KDEQ 121453Z AUTO 03009KT 10SM VCTS +RA SCT007 BKN023 OVC065 22/21 A3004 RMK AO1 LTG DSNT ALQDS TSB04E19 PRESRR SLP167 P0064 60175 T02220211 53014
KDEQ 121448Z AUTO 03006KT 10SM VCTS RA SCT005 BKN023 OVC065 22/21 A3003 RMK AO1 LTG DSNT ALQDS TSB04E19 PRESRR P0062
KDEQ 121425Z AUTO 21008KT 4SM VCTS RA BR BKN025 BKN039 OVC070 22/21 A2999 RMK AO1 LTG DSNT ALQDS TSB04E19 P0044 T02220211
KDEQ 121404Z AUTO 13009KT 3SM +TSRA BR FEW006 OVC027 22/21 A2998 RMK AO1 LTG DSNT ALQDS TSB04 P0018 T02220211
KDEQ 121401Z AUTO 15007KT 2 1/2SM +RA BR FEW006 OVC025 22/21 A2999 RMK AO1 P0015 T02220211 TSNO
KDEQ 121353Z AUTO 14005KT 3SM +RA BR FEW006 OVC021 23/21 A3000 RMK AO1 RAB00 SLP153 P0106 T02280211 TSNO
KDEQ 121341Z AUTO 00000KT 3SM RA BR SCT006 OVC018 23/22 A2999 RMK AO1 RAB00 P0091 T02280217 TSNO
KDEQ 121336Z AUTO VRB03KT 1 1/2SM +RA BR FEW006 OVC016 23/22 A2999 RMK AO1 RAB00 P0089 T02280217 TSNO
KDEQ 121332Z AUTO VRB04KT 1 1/4SM +RA BR OVC014 23/22 A2998 RMK AO1 RAB00 P0087 T02280217 TSNO
KDEQ 121317Z AUTO VRB05G21KT 2SM +RA BR FEW006 SCT013 OVC020 23/22 A3000 RMK AO1 RAB00 P0042 T02280217 TSNO
KDEQ 121307Z AUTO 11014G17KT 6SM +RA BR SCT007 BKN019 OVC032 23/22 A2998 RMK AO1 RAB00 P0016 T02280217 TSNO
KDEQ 121257Z AUTO 09006KT 10SM BKN007 OVC032 23/22 A3000 RMK AO1 CIG 006V010 PRESRR T02280217 TSNO
KDEQ 121253Z AUTO 07007KT 10SM SCT007 SCT019 OVC032 23/22 A3000 RMK AO1 RAE47 SLP153 P0005 T02280217 TSNO
KDEQ 121244Z AUTO 12007G16KT 10SM -RA SCT007 SCT019 OVC032 23/22 A2998 RMK AO1 P0005 T02280217 TSNO
KDEQ 121225Z AUTO VRB05KT 10SM -RA BKN006 BKN027 OVC035 23/22 A2998 RMK AO1 CIG 004V009 P0004 T02280217 TSNO
KDEQ 121208Z AUTO VRB03KT 10SM -RA SCT006 BKN024 OVC032 23/22 A2996 RMK AO1 P0004 T02280217 TSNO
KDEQ 121153Z AUTO 10007KT 7SM +RA OVC022 23/22 A2995 RMK AO1 SLP138 P0012 60032 70094 T02280217 10239 20228 53015 TSNO $
KDEQ 121112Z AUTO 08007KT 10SM -RA FEW008 OVC021 23/22 A2993 RMK AO1 P0000 T02330217 TSNO $
KDEQ 121053Z AUTO 32005KT 10SM -RA FEW010 BKN022 OVC031 23/22 A2993 RMK AO1 RAB24 SLP131 P0020 T02330217 TSNO $
KDEQ 120953Z AUTO 04005KT 10SM OVC024 24/22 A2992 RMK AO1 SLP127 T02390217 TSNO $
KDEQ 120853Z AUTO 10SM SCT008 BKN022 OVC065 23/21 A2991 RMK AO1 LTG DSNT N-SE CIG 015V032 SLP123 T02330211 58006 $
KDEQ 120849Z AUTO 00000KT 10SM SCT010 BKN025 OVC080 23/22 A2993 RMK AO1 LTG DSNT N-SE $
KDEQ 120840Z AUTO 06005KT 10SM SCT008 OVC065 23/22 A2992 RMK AO1 LTG DSNT N-E T02280217 $
KDEQ 120831Z AUTO 07006KT 10SM VCTS BKN008 BKN065 23/22 A2992 RMK AO1 LTG DSNT N-E CIG 007V013 T02280217 $
KDEQ 120815Z AUTO 03005KT 10SM BKN008 OVC075 23/22 A2992 RMK AO1 LTG DSNT N-E CIG 007V013 T02280217 $
KDEQ 120753Z AUTO 07006KT 10SM SCT007 BKN075 23/22 A2993 RMK AO1 LTG DSNT N-E SLP128 T02280217 $
KDEQ 120744Z AUTO 06005KT 10SM FEW008 BKN070 23/22 A2993 RMK AO1 LTG DSNT N-E T02280217 $
KDEQ 120653Z AUTO 09005KT 10SM BKN100 23/22 A2993 RMK AO1 LTG DSNT N-E SLP127 T02280217 $
KDEQ 120553Z AUTO 08004KT 10SM FEW009 FEW065 BKN110 23/22 A2996 RMK AO1 SLP137 60000 T02330217 10239 20233 403500228 51009 $
KDEQ 120542Z AUTO 10006KT 10SM FEW009 SCT060 OVC110 23/22 A2995 RMK AO1 T02330217 $
KDEQ 120453Z AUTO 08004KT 10SM BKN110 23/22 A2996 RMK AO1 SLP138 T02330217 $
KDEQ 120353Z AUTO 01006KT 10SM FEW008 BKN100 23/22 A2997 RMK AO1 SLP144 T02330222 $
KDEQ 120302Z AUTO 04003KT 10SM FEW008 SCT120 23/22 A2994 RMK AO1 T02330222 $
KDEQ 120253Z AUTO 08004KT 10SM BKN008 23/22 A2993 RMK AO1 RAE12 CIG 007V011 SLP128 P0000 60000 T02330222 53003 $
KDEQ 120236Z AUTO 05003KT 10SM BKN008 24/22 A2992 RMK AO1 RAE12 CIG 006V011 P0000 T02390222 $
KDEQ 120216Z AUTO 06005KT 10SM SCT008 BKN110 24/22 A2991 RMK AO1 RAE12 P0000 T02390222 $
KDEQ 120153Z AUTO 07006KT 10SM -RA BKN110 24/22 A2990 RMK AO1 LTG DSNT SW SLP119 P0000 T02390222 $
KDEQ 120053Z AUTO 11005KT 10SM -RA FEW090 BKN110 24/22 A2993 RMK AO1 LTG DSNT W RAB30 SLP128 P0000 T02390222 $
KDEQ 112353Z AUTO 10006KT 10SM FEW090 SCT110 24/22 A2992 RMK AO1 LTG DSNT W AND NW SLP126 60062 T02390222 10350 20228 $
KDEQ 112253Z AUTO 04007KT 10SM FEW045 SCT095 BKN110 24/22 A2996 RMK AO1 LTG DSNT E AND W AND NW RAE49 SLP140 P0000 T02390217 $
KDEQ 112221Z AUTO 06005KT 10SM -RA OVC110 23/22 A2995 RMK AO1 LTG DSNT ALQDS P0000 T02330217 $
KDEQ 112153Z AUTO 00000KT 10SM VCTS -RA 23/22 A2995 RMK AO1 LTG DSNT ALQDS RAB2057B50 TSE40 SLP137 P0062 T02330217 $